Time;durP1;ratioP1;P1;durP2;ratioP2;P2;SDS_P1;SDS_P2;PMS_P1;PMS_P2;Temp;Humidity;BMP_temperature;BMP_pressure;BME280_temperature;BME280_humidity;BME280_pressure;Samples;Min_cycle;Max_cycle;Signal;HPM_P1;HPM_P2
2022/10/31 00:03:44;;;;;;;38.60;10.13;;;13.50;99.90;;;;;;21000987;28;20280;-68
2022/10/31 00:13:46;;;;;;;33.20;10.57;;;13.40;99.90;;;;;;20999922;28;20242;-72
2022/10/31 00:23:48;;;;;;;19.93;8.60;;;13.40;99.90;;;;;;20998238;28;20214;-74
2022/10/31 00:33:50;;;;;;;17.27;7.20;;;13.50;99.90;;;;;;20999064;28;20285;-75
2022/10/31 00:43:51;;;;;;;25.33;7.63;;;13.60;99.90;;;;;;20998048;28;20220;-70
2022/10/31 00:53:53;;;;;;;46.27;6.87;;;13.60;99.90;;;;;;20997150;28;20274;-72
2022/10/31 01:03:55;;;;;;;17.70;6.53;;;13.60;99.90;;;;;;20996142;28;20715;-69
2022/10/31 01:13:57;;;;;;;65.20;9.30;;;13.60;99.90;;;;;;20995923;28;20232;-70
2022/10/31 01:23:59;;;;;;;15.80;7.27;;;13.60;99.90;;;;;;20957877;28;20204;-70
2022/10/31 01:34:01;;;;;;;25.20;7.00;;;13.60;99.90;;;;;;20912592;28;20235;-73
2022/10/31 01:44:14;;;;;;;9.47;6.87;;;13.50;99.90;;;;;;20911972;28;20214;-72
2022/10/31 01:54:20;;;;;;;96.73;8.43;;;13.50;99.90;;;;;;20911497;28;20319;-73
2022/10/31 02:04:24;;;;;;;10.17;6.57;;;13.50;99.90;;;;;;20911443;28;20288;-75
2022/10/31 02:14:29;;;;;;;36.47;6.33;;;13.40;99.90;;;;;;20913321;28;20749;-74
2022/10/31 02:24:57;;;;;;;76.43;8.00;;;13.50;99.90;;;;;;20926295;28;20281;-74
2022/10/31 02:35:24;;;;;;;15.00;5.70;;;13.40;99.90;;;;;;20925769;28;20274;-76
2022/10/31 02:45:53;;;;;;;22.90;5.47;;;13.30;99.90;;;;;;20924372;28;20257;-76
2022/10/31 02:56:24;;;;;;;20.47;5.70;;;13.30;99.90;;;;;;20923652;28;20232;-76
2022/10/31 03:06:45;;;;;;;15.67;5.60;;;13.30;99.90;;;;;;20918307;28;20246;-76
2022/10/31 03:16:49;;;;;;;9.33;4.80;;;13.20;99.90;;;;;;20922094;28;20231;-67
2022/10/31 03:26:55;;;;;;;15.57;5.40;;;13.10;99.90;;;;;;20920754;28;20656;-67
2022/10/31 03:37:00;;;;;;;18.47;4.60;;;13.00;99.90;;;;;;20921019;28;20306;-66
2022/10/31 03:47:03;;;;;;;7.03;4.47;;;13.10;99.90;;;;;;20919831;28;20220;-66
2022/10/31 03:57:14;;;;;;;27.63;5.20;;;13.10;99.90;;;;;;20918974;28;20240;-74
2022/10/31 04:07:18;;;;;;;13.17;5.00;;;13.00;99.90;;;;;;20918459;28;20639;-72
2022/10/31 04:17:23;;;;;;;9.00;5.10;;;12.90;99.90;;;;;;20917387;28;20235;-74
2022/10/31 04:27:25;;;;;;;13.93;4.73;;;12.80;99.90;;;;;;20916696;28;20213;-74
2022/10/31 04:37:27;;;;;;;16.93;5.00;;;12.90;99.90;;;;;;20915809;28;20229;-74
2022/10/31 04:47:34;;;;;;;33.73;5.30;;;12.90;99.90;;;;;;20915608;28;20219;-76
2022/10/31 04:57:47;;;;;;;13.67;5.17;;;12.70;99.90;;;;;;20913811;28;20199;-73
2022/10/31 05:07:49;;;;;;;7.97;5.33;;;12.70;99.90;;;;;;20911815;28;20597;-76
2022/10/31 05:17:52;;;;;;;23.27;5.83;;;12.70;99.90;;;;;;20913279;28;20659;-74
2022/10/31 05:27:56;;;;;;;5.63;5.07;;;12.60;99.90;;;;;;20912692;28;20558;-74
2022/10/31 05:37:58;;;;;;;17.37;5.10;;;12.60;99.90;;;;;;20912245;28;20656;-76
2022/10/31 05:48:01;;;;;;;32.53;6.07;;;12.60;99.90;;;;;;20912326;28;20219;-75
2022/10/31 05:58:03;;;;;;;7.57;5.83;;;12.50;99.90;;;;;;20927895;28;20254;-74
2022/10/31 06:08:05;;;;;;;22.63;6.60;;;12.50;99.90;;;;;;20927418;28;20243;-74
2022/10/31 06:18:08;;;;;;;13.30;6.40;;;12.50;99.90;;;;;;20926979;28;20203;-75
2022/10/31 06:28:09;;;;;;;14.00;5.93;;;12.50;99.90;;;;;;20925874;28;20234;-72
2022/10/31 06:38:11;;;;;;;45.87;6.60;;;12.40;99.90;;;;;;20925242;28;20263;-73
2022/10/31 06:48:13;;;;;;;36.60;6.60;;;12.40;99.90;;;;;;20924370;28;20232;-74
2022/10/31 06:58:18;;;;;;;16.60;7.23;;;12.30;99.90;;;;;;20923033;28;20215;-69
2022/10/31 07:08:20;;;;;;;13.80;6.07;;;12.30;99.90;;;;;;20920655;28;20243;-73
2022/10/31 07:18:21;;;;;;;19.57;6.60;;;12.30;99.90;;;;;;20922053;28;20672;-75
2022/10/31 07:28:24;;;;;;;11.80;6.60;;;12.60;99.90;;;;;;20920323;28;20234;-75
2022/10/31 07:38:26;;;;;;;10.73;6.63;;;12.60;99.90;;;;;;20920290;28;20656;-70
2022/10/31 07:48:27;;;;;;;12.40;8.07;;;12.70;99.90;;;;;;20920807;28;20690;-73
2022/10/31 07:58:29;;;;;;;14.70;7.63;;;12.70;99.90;;;;;;20919342;28;20654;-75
2022/10/31 08:08:32;;;;;;;15.60;8.10;;;12.80;99.90;;;;;;20918084;28;20334;-74
2022/10/31 08:18:38;;;;;;;9.40;7.33;;;12.80;99.90;;;;;;20917753;28;20622;-75
2022/10/31 08:28:40;;;;;;;10.13;5.70;;;13.00;99.90;;;;;;20916888;28;20226;-75
2022/10/31 08:38:42;;;;;;;13.20;5.77;;;12.90;99.90;;;;;;20915485;28;20262;-75
2022/10/31 08:48:50;;;;;;;12.33;7.37;;;12.90;99.90;;;;;;20915390;28;20237;-75
2022/10/31 08:58:53;;;;;;;21.23;6.80;;;13.00;99.90;;;;;;20913913;28;20667;-75
2022/10/31 09:08:54;;;;;;;28.90;7.60;;;12.80;99.90;;;;;;20912270;28;20299;-75
2022/10/31 09:18:56;;;;;;;21.07;7.83;;;12.70;99.90;;;;;;20912703;28;20675;-75
2022/10/31 09:28:58;;;;;;;33.70;9.10;;;12.70;99.90;;;;;;20910753;28;20232;-74
2022/10/31 09:39:00;;;;;;;18.63;9.88;;;12.70;99.90;;;;;;20906686;28;20923;-74
2022/10/31 09:49:29;;;;;;;41.93;10.80;;;12.80;99.90;;;;;;20857286;28;20468;-76
2022/10/31 09:59:34;;;;;;;31.93;10.33;;;13.40;99.90;;;;;;20843720;28;20201;-73
2022/10/31 10:09:36;;;;;;;69.93;10.30;;;13.10;99.90;;;;;;20829500;28;20245;-74
2022/10/31 10:20:10;;;;;;;14.27;10.43;;;13.10;99.90;;;;;;20866490;28;20210;-74
2022/10/31 10:30:21;;;;;;;16.50;9.63;;;13.20;99.90;;;;;;20909843;28;20697;-74
2022/10/31 10:40:28;;;;;;;27.10;10.50;;;13.50;99.90;;;;;;20920407;28;20211;-73
2022/10/31 10:50:37;;;;;;;14.53;9.93;;;13.50;99.90;;;;;;20910079;28;20243;-72
2022/10/31 11:00:49;;;;;;;17.57;10.90;;;13.60;99.90;;;;;;20841217;28;20211;-73
2022/10/31 11:11:17;;;;;;;16.10;10.60;;;13.70;99.90;;;;;;20918759;28;20243;-74
2022/10/31 11:21:28;;;;;;;16.97;10.57;;;13.90;99.90;;;;;;20922977;28;20269;-72
2022/10/31 11:31:30;;;;;;;16.70;11.53;;;14.00;99.90;;;;;;20849989;28;20228;-76
2022/10/31 11:41:35;;;;;;;28.80;11.70;;;14.00;99.90;;;;;;20839771;28;20205;-75
2022/10/31 11:51:39;;;;;;;19.17;11.87;;;14.10;99.90;;;;;;20851686;28;20315;-67
2022/10/31 12:01:50;;;;;;;19.10;11.63;;;14.20;99.90;;;;;;20836257;28;20212;-68
2022/10/31 12:12:22;;;;;;;18.93;12.03;;;14.30;99.90;;;;;;20836208;28;20243;-68
2022/10/31 12:22:47;;;;;;;22.37;12.13;;;14.40;99.90;;;;;;20834751;28;20212;-71
2022/10/31 12:33:11;;;;;;;24.43;13.70;;;14.60;99.90;;;;;;20834812;28;20283;-74
2022/10/31 12:43:18;;;;;;;22.57;13.00;;;14.60;99.90;;;;;;20876720;28;20256;-71
2022/10/31 12:53:26;;;;;;;19.73;13.80;;;14.70;99.90;;;;;;20915509;28;20238;-80
2022/10/31 13:03:39;;;;;;;28.30;15.00;;;14.80;99.90;;;;;;20910165;28;20231;-67
2022/10/31 13:14:06;;;;;;;20.33;13.57;;;14.90;99.90;;;;;;20911716;28;20264;-76
2022/10/31 13:24:18;;;;;;;19.57;14.33;;;15.10;99.90;;;;;;20912535;28;20210;-72
2022/10/31 13:34:40;;;;;;;19.17;14.37;;;15.20;99.90;;;;;;20912581;28;20234;-74
2022/10/31 13:44:42;;;;;;;24.27;15.20;;;15.30;99.90;;;;;;20911571;28;20665;-68
2022/10/31 13:54:47;;;;;;;30.53;16.03;;;15.30;99.90;;;;;;20911462;28;20232;-67
2022/10/31 14:04:52;;;;;;;26.23;16.73;;;15.40;99.90;;;;;;20909873;28;20326;-71
2022/10/31 14:15:09;;;;;;;30.67;17.60;;;15.20;99.90;;;;;;20920520;28;20729;-75
2022/10/31 14:25:34;;;;;;;25.97;17.67;;;15.20;99.90;;;;;;20925903;28;20210;-76
2022/10/31 14:36:04;;;;;;;28.07;18.83;;;15.20;99.90;;;;;;20925585;28;20274;-76
2022/10/31 14:46:14;;;;;;;30.70;19.07;;;15.20;99.90;;;;;;20924591;28;20695;-80
2022/10/31 14:56:25;;;;;;;30.90;19.80;;;15.10;99.90;;;;;;20913054;28;20235;-77
2022/10/31 15:06:37;;;;;;;29.53;20.20;;;15.10;99.90;;;;;;20838396;28;20281;-77
2022/10/31 15:16:43;;;;;;;27.80;18.87;;;15.10;99.90;;;;;;20839435;28;20236;-68
2022/10/31 15:26:47;;;;;;;26.30;18.20;;;15.20;99.90;;;;;;20835363;28;20255;-65
2022/10/31 15:36:50;;;;;;;31.13;20.13;;;15.20;99.90;;;;;;20837821;28;20290;-65
2022/10/31 15:47:12;;;;;;;28.17;19.67;;;15.20;99.90;;;;;;20834642;28;20216;-65
2022/10/31 15:57:17;;;;;;;32.33;21.07;;;15.10;99.90;;;;;;20836933;28;20290;-78
2022/10/31 16:07:20;;;;;;;34.77;21.37;;;15.00;99.90;;;;;;20835931;28;20263;-73
2022/10/31 16:17:26;;;;;;;56.90;21.13;;;14.80;99.90;;;;;;20835323;28;20714;-80
2022/10/31 16:27:31;;;;;;;35.00;22.57;;;14.70;99.90;;;;;;20834390;28;20212;-79
2022/10/31 16:37:33;;;;;;;32.13;22.03;;;14.70;99.90;;;;;;20833461;28;20266;-80
2022/10/31 16:47:34;;;;;;;30.23;21.00;;;14.70;99.90;;;;;;20832847;28;20329;-70
2022/10/31 16:57:36;;;;;;;26.23;18.67;;;14.60;99.90;;;;;;20832101;28;20243;-73
2022/10/31 17:07:38;;;;;;;27.47;18.27;;;14.60;99.90;;;;;;20829872;28;20241;-79
2022/10/31 17:17:40;;;;;;;23.97;17.80;;;14.60;99.90;;;;;;20831161;28;20239;-76
2022/10/31 17:27:41;;;;;;;27.53;18.53;;;14.60;99.90;;;;;;20830549;28;20212;-76
2022/10/31 17:37:48;;;;;;;36.57;20.13;;;14.60;99.90;;;;;;20830099;28;20698;-69
2022/10/31 17:47:51;;;;;;;29.07;20.53;;;14.60;99.90;;;;;;20837059;28;20271;-80
2022/10/31 17:57:52;;;;;;;43.87;20.70;;;14.70;99.90;;;;;;20846255;28;20253;-75
2022/10/31 18:07:54;;;;;;;41.30;19.10;;;14.60;99.90;;;;;;20845234;28;20291;-71
2022/10/31 18:17:59;;;;;;;33.57;20.27;;;14.60;99.90;;;;;;20845090;28;20240;-73
2022/10/31 18:28:02;;;;;;;30.73;18.97;;;14.60;99.90;;;;;;20844060;28;20247;-65
2022/10/31 18:38:05;;;;;;;41.97;19.97;;;14.60;99.90;;;;;;20843019;28;20599;-69
2022/10/31 18:48:11;;;;;;;71.33;21.70;;;14.60;99.90;;;;;;20842270;28;20271;-72
2022/10/31 18:58:12;;;;;;;32.17;20.40;;;14.60;99.90;;;;;;20840098;28;20243;-76
2022/10/31 19:08:14;;;;;;;27.40;19.70;;;14.50;99.90;;;;;;20836852;28;20293;-66
2022/10/31 19:18:16;;;;;;;55.53;20.33;;;14.50;99.90;;;;;;20898094;28;20235;-70
2022/10/31 19:28:18;;;;;;;26.80;19.27;;;14.50;99.90;;;;;;20919817;28;20208;-70
2022/10/31 19:38:19;;;;;;;27.83;20.13;;;14.50;99.90;;;;;;20911916;28;20240;-70
2022/10/31 19:48:21;;;;;;;32.73;20.07;;;14.50;99.90;;;;;;20918537;28;20218;-72
2022/10/31 19:58:24;;;;;;;22.27;16.80;;;14.50;99.90;;;;;;20917932;28;20247;-71
2022/10/31 20:08:26;;;;;;;22.30;17.20;;;14.50;99.90;;;;;;20916082;28;20234;-70
2022/10/31 20:18:29;;;;;;;66.23;18.43;;;14.40;99.90;;;;;;20916339;28;20232;-75
2022/10/31 20:28:32;;;;;;;30.53;16.77;;;14.40;99.90;;;;;;20895394;28;20203;-71
2022/10/31 20:38:37;;;;;;;46.13;18.60;;;14.40;99.90;;;;;;20831902;28;20294;-72
2022/10/31 20:48:39;;;;;;;54.30;16.87;;;14.30;99.90;;;;;;20870232;28;20623;-70
2022/10/31 20:58:42;;;;;;;76.10;20.10;;;14.20;99.90;;;;;;20911583;28;20232;-76
2022/10/31 21:08:44;;;;;;;85.03;22.57;;;14.20;99.90;;;;;;20911928;28;20251;-73
2022/10/31 21:18:48;;;;;;;23.23;17.47;;;14.20;99.90;;;;;;20911283;28;20240;-74
2022/10/31 21:28:54;;;;;;;28.63;19.40;;;14.20;99.90;;;;;;20911258;28;20215;-72
2022/10/31 21:38:56;;;;;;;24.53;18.83;;;14.20;99.90;;;;;;20910468;28;20238;-72
2022/10/31 21:48:58;;;;;;;25.27;18.60;;;14.20;99.90;;;;;;20912163;28;20256;-72
2022/10/31 21:59:00;;;;;;;22.47;16.37;;;14.30;99.90;;;;;;20911642;28;20288;-71
2022/10/31 22:09:04;;;;;;;23.37;16.20;;;14.10;99.90;;;;;;20911166;28;20283;-70
2022/10/31 22:19:08;;;;;;;19.03;14.87;;;14.00;99.90;;;;;;20911291;28;20271;-73
2022/10/31 22:29:13;;;;;;;26.47;16.97;;;14.00;99.90;;;;;;20909277;28;20210;-69
2022/10/31 22:39:15;;;;;;;22.63;17.00;;;14.00;99.90;;;;;;20924758;28;20235;-75
2022/10/31 22:49:17;;;;;;;19.40;14.67;;;14.10;99.90;;;;;;20880584;28;20214;-69
2022/10/31 22:59:18;;;;;;;18.27;14.00;;;14.10;99.90;;;;;;20840140;28;20208;-70
2022/10/31 23:09:20;;;;;;;21.60;15.53;;;14.00;99.90;;;;;;20840763;28;20305;-69
2022/10/31 23:19:27;;;;;;;19.30;14.90;;;14.00;99.90;;;;;;20850520;28;20666;-69
2022/10/31 23:29:28;;;;;;;20.17;14.97;;;14.00;99.90;;;;;;20916183;28;20256;-70
2022/10/31 23:39:30;;;;;;;20.13;15.53;;;14.00;99.90;;;;;;20921164;28;20211;-69
2022/10/31 23:49:32;;;;;;;19.00;14.67;;;14.00;99.90;;;;;;20919637;28;20619;-69
2022/10/31 23:59:34;;;;;;;21.17;15.33;;;14.00;99.90;;;;;;20920018;28;20211;-68
